createdAt,value
2019-04-03T00:01:06.013Z,100521.14
2019-04-03T00:03:38.108Z,100525.59
2019-04-03T00:06:10.230Z,100522.83
2019-04-03T00:08:41.951Z,100526.43
2019-04-03T00:11:13.863Z,100517.29
2019-04-03T00:13:46.045Z,100516.98
2019-04-03T00:16:18.322Z,100516.98
2019-04-03T00:18:50.326Z,100518.95
2019-04-03T00:21:22.157Z,100521.14
2019-04-03T00:23:54.621Z,100518.11
2019-04-03T00:26:26.613Z,100523.64
2019-04-03T00:28:58.342Z,100523.34
2019-04-03T00:31:30.139Z,100527.50
2019-04-03T00:34:01.958Z,100526.39
2019-04-03T00:36:33.928Z,100533.60
2019-04-03T00:39:07.648Z,100525.30
2019-04-03T00:41:39.581Z,100525.30
2019-04-03T00:44:11.265Z,100528.06
2019-04-03T00:46:43.230Z,100525.84
2019-04-03T00:49:15.078Z,100526.69
2019-04-03T00:51:47.642Z,100527.50
2019-04-03T00:54:19.336Z,100528.06
2019-04-03T00:56:51.252Z,100533.33
2019-04-03T00:59:23.030Z,100527.25
2019-04-03T01:01:56.493Z,100529.17
2019-04-03T01:04:29.104Z,100525.59
2019-04-03T01:07:01.310Z,100526.13
2019-04-03T01:09:33.214Z,100533.05
2019-04-03T01:12:05.332Z,100536.11
2019-04-03T01:14:37.319Z,100530.58
2019-04-03T01:17:08.991Z,100531.94
2019-04-03T01:19:40.850Z,100533.59
2019-04-03T01:22:12.794Z,100531.41
2019-04-03T01:24:44.673Z,100530.84
2019-04-03T01:27:16.493Z,100536.37
2019-04-03T01:29:48.594Z,100536.37
2019-04-03T01:32:20.559Z,100537.45
2019-04-03T01:34:52.468Z,100540.52
2019-04-03T01:37:24.507Z,100537.75
2019-04-03T01:39:56.564Z,100538.30
2019-04-03T01:42:28.383Z,100538.03
2019-04-03T01:45:00.527Z,100539.14
2019-04-03T01:47:32.362Z,100534.15
2019-04-03T01:50:06.362Z,100537.45
2019-04-03T01:52:38.365Z,100538.30
2019-04-03T01:55:10.402Z,100533.60
2019-04-03T01:57:42.848Z,100535.80
2019-04-03T02:00:15.024Z,100533.03
2019-04-03T02:02:47.337Z,100534.41
2019-04-03T02:05:19.088Z,100533.60
2019-04-03T02:07:51.034Z,100539.95
2019-04-03T02:10:23.307Z,100537.18
2019-04-03T02:12:55.238Z,100541.89
2019-04-03T02:15:26.936Z,100537.48
2019-04-03T02:17:58.684Z,100535.53
2019-04-03T02:20:30.910Z,100538.02
2019-04-03T02:23:02.945Z,100534.15
2019-04-03T02:25:34.950Z,100538.84
2019-04-03T02:28:06.631Z,100538.30
2019-04-03T02:30:38.434Z,100541.06
2019-04-03T02:33:10.253Z,100536.07
2019-04-03T02:35:42.243Z,100537.19
2019-04-03T02:38:14.801Z,100540.80
2019-04-03T02:40:46.708Z,100540.50
2019-04-03T02:43:18.733Z,100537.45
2019-04-03T02:45:50.470Z,100539.95
2019-04-03T02:48:22.208Z,100535.80
2019-04-03T02:50:53.985Z,100544.95
2019-04-03T02:53:27.500Z,100536.08
2019-04-03T02:55:59.771Z,100539.66
2019-04-03T02:58:31.782Z,100537.47
2019-04-03T03:01:07.006Z,100539.11
2019-04-03T03:03:36.766Z,100543.54
2019-04-03T03:06:08.593Z,100533.86
2019-04-03T03:08:42.519Z,100538.55
2019-04-03T03:11:14.639Z,100537.98
2019-04-03T03:13:46.720Z,100535.78
2019-04-03T03:16:18.911Z,100538.83
2019-04-03T03:18:50.777Z,100535.22
2019-04-03T03:21:22.942Z,100538.53
2019-04-03T03:23:56.217Z,100534.67
2019-04-03T03:26:28.691Z,100536.33
2019-04-03T03:29:15.740Z,100535.23
2019-04-03T03:32:01.600Z,100537.17
2019-04-03T03:34:07.937Z,100532.17
2019-04-03T03:36:40.473Z,100539.09
2019-04-03T03:39:12.314Z,100539.94
2019-04-03T03:41:44.327Z,100535.78
2019-04-03T03:44:17.358Z,100533.56
2019-04-03T03:46:49.612Z,100531.37
2019-04-03T03:49:21.330Z,100536.91
2019-04-03T03:51:53.841Z,100537.17
2019-04-03T03:54:25.656Z,100538.84
2019-04-03T03:56:57.507Z,100538.84
2019-04-03T03:59:29.821Z,100535.78
2019-04-03T04:02:05.271Z,100536.34
2019-04-03T04:04:35.406Z,100540.80
2019-04-03T04:07:07.432Z,100541.61
2019-04-03T04:09:39.367Z,100546.58
2019-04-03T04:12:11.207Z,100542.72
2019-04-03T04:14:43.144Z,100543.83
2019-04-03T04:17:17.343Z,100542.98
2019-04-03T04:19:48.856Z,100542.45
2019-04-03T04:22:20.621Z,100547.42
2019-04-03T04:24:52.456Z,100546.34
2019-04-03T04:27:24.196Z,100546.06
2019-04-03T04:29:55.851Z,100544.69
2019-04-03T04:32:27.353Z,100541.64
2019-04-03T04:34:59.494Z,100547.17
2019-04-03T04:37:31.489Z,100540.55
2019-04-03T04:40:03.832Z,100546.63
2019-04-03T04:42:35.761Z,100546.90
2019-04-03T04:45:07.951Z,100547.73
2019-04-03T04:47:40.268Z,100550.24
2019-04-03T04:50:12.132Z,100554.94
2019-04-03T04:52:44.208Z,100557.97
2019-04-03T04:55:16.031Z,100557.44
2019-04-03T04:57:47.804Z,100561.28
2019-04-03T05:00:19.759Z,100555.48
2019-04-03T05:02:52.228Z,100558.80
2019-04-03T05:05:26.445Z,100563.79
2019-04-03T05:07:57.401Z,100561.56
2019-04-03T05:10:29.358Z,100559.61
2019-04-03T05:13:01.596Z,100561.00
2019-04-03T05:15:33.359Z,100566.26
2019-04-03T05:18:05.868Z,100562.95
2019-04-03T05:20:37.583Z,100567.64
2019-04-03T05:23:09.517Z,100569.31
2019-04-03T05:25:41.328Z,100571.27
2019-04-03T05:28:13.557Z,100568.75
2019-04-03T05:30:45.535Z,100568.48
2019-04-03T05:33:17.308Z,100561.02
2019-04-03T05:35:49.823Z,100566.82
2019-04-03T05:38:22.546Z,100563.50
2019-04-03T05:40:56.501Z,100564.08
2019-04-03T05:43:30.392Z,100567.39
2019-04-03T05:46:03.746Z,100563.78
2019-04-03T05:48:36.316Z,100570.13
2019-04-03T05:51:08.103Z,100579.56
2019-04-03T05:53:39.950Z,100576.53
2019-04-03T05:56:12.718Z,100572.38
2019-04-03T05:58:55.648Z,100575.71
2019-04-03T06:01:19.020Z,100572.37
2019-04-03T06:03:51.041Z,100574.03
2019-04-03T06:06:23.307Z,100570.17
2019-04-03T06:08:56.767Z,100576.25
2019-04-03T06:11:28.643Z,100580.11
2019-04-03T06:14:00.999Z,100581.79
2019-04-03T06:16:33.474Z,100577.92
2019-04-03T06:19:06.964Z,100579.84
2019-04-03T06:21:39.694Z,100582.06
2019-04-03T06:24:11.280Z,100581.23
2019-04-03T06:26:44.588Z,100582.06
2019-04-03T06:29:20.272Z,100585.64
2019-04-03T06:31:52.054Z,100585.64
2019-04-03T06:34:24.317Z,100577.61
2019-04-03T06:36:59.006Z,100578.19
2019-04-03T06:39:32.578Z,100580.38
2019-04-03T06:42:04.366Z,100574.84
2019-04-03T06:44:36.400Z,100572.08
2019-04-03T06:47:08.560Z,100577.34
2019-04-03T06:49:41.084Z,100577.34
2019-04-03T06:52:13.063Z,100579.27
2019-04-03T06:54:47.923Z,100579.81
2019-04-03T06:57:19.718Z,100577.05
2019-04-03T06:59:51.557Z,100572.09
2019-04-03T07:02:23.205Z,100574.28
2019-04-03T07:04:54.968Z,100582.59
2019-04-03T07:07:34.387Z,100574.86
2019-04-03T07:10:05.055Z,100574.83
2019-04-03T07:12:37.464Z,100580.37
2019-04-03T07:15:09.431Z,100579.25
2019-04-03T07:17:42.820Z,100577.87
2019-04-03T07:20:18.786Z,100578.98
2019-04-03T07:22:49.152Z,100578.17
2019-04-03T07:25:21.390Z,100579.55
2019-04-03T07:27:53.407Z,100574.56
2019-04-03T07:30:25.523Z,100575.94
2019-04-03T07:32:58.478Z,100577.33
2019-04-03T07:35:31.456Z,100572.33
2019-04-03T07:38:03.659Z,100567.64
2019-04-03T07:40:35.928Z,100569.02
2019-04-03T07:43:07.713Z,100563.22
2019-04-03T07:45:39.768Z,100566.55
2019-04-03T07:48:11.406Z,100561.56
2019-04-03T07:50:43.365Z,100564.33
2019-04-03T07:53:15.645Z,100561.83
2019-04-03T07:55:47.767Z,100556.87
2019-04-03T07:58:19.862Z,100556.03
2019-04-03T08:00:51.674Z,100561.02
2019-04-03T08:03:23.466Z,100552.44
2019-04-03T08:05:56.735Z,100548.00
2019-04-03T08:08:29.732Z,100549.13
2019-04-03T08:11:02.633Z,100541.64
2019-04-03T08:13:37.396Z,100538.88
2019-04-03T08:16:08.615Z,100548.30
2019-04-03T08:18:40.429Z,100539.45
2019-04-03T08:21:12.462Z,100534.16
2019-04-03T08:23:44.161Z,100534.16
2019-04-03T08:26:19.192Z,100535.28
2019-04-03T08:28:51.451Z,100527.00
2019-04-03T08:31:23.650Z,100527.80
2019-04-03T08:33:58.749Z,100522.00
2019-04-03T08:36:29.542Z,100521.44
2019-04-03T08:39:01.339Z,100523.92
2019-04-03T08:41:33.043Z,100519.23
2019-04-03T08:44:08.271Z,100515.08
2019-04-03T08:46:38.797Z,100512.86
2019-04-03T08:49:10.579Z,100507.87
2019-04-03T08:51:47.145Z,100507.05
2019-04-03T08:54:19.523Z,100501.25
2019-04-03T08:56:52.783Z,100495.98
2019-04-03T08:59:24.913Z,100493.79
2019-04-03T09:01:56.724Z,100496.28
2019-04-03T09:04:28.894Z,100494.31
2019-04-03T09:07:00.817Z,100492.39
2019-04-03T09:09:34.934Z,100484.92
2019-04-03T09:12:07.359Z,100476.08
2019-04-03T09:14:39.800Z,100486.58
2019-04-03T09:17:11.903Z,100480.50
2019-04-03T09:19:43.743Z,100483.27
2019-04-03T09:22:15.747Z,100481.88
2019-04-03T09:24:49.422Z,100484.11
2019-04-03T09:27:21.385Z,100483.56
2019-04-03T09:29:53.100Z,100471.36
2019-04-03T09:32:24.875Z,100467.48
2019-04-03T09:34:56.677Z,100468.33
2019-04-03T09:37:28.639Z,100467.77
2019-04-03T09:40:00.673Z,100470.81
2019-04-03T09:42:32.587Z,100459.73
2019-04-03T09:45:08.566Z,100466.09
2019-04-03T09:47:40.626Z,100466.36
2019-04-03T09:50:14.376Z,100459.18
2019-04-03T09:52:49.376Z,100448.38
2019-04-03T09:55:19.955Z,100448.67
2019-04-03T09:57:53.200Z,100446.18
2019-04-03T10:00:26.076Z,100446.98
2019-04-03T10:02:58.537Z,100446.17
2019-04-03T10:05:30.765Z,100447.84
2019-04-03T10:08:02.681Z,100443.40
2019-04-03T10:10:34.778Z,100435.39
2019-04-03T10:13:06.433Z,100433.72
2019-04-03T10:15:38.364Z,100432.33
2019-04-03T10:18:10.259Z,100436.77
2019-04-03T10:20:42.078Z,100429.30
2019-04-03T10:23:14.197Z,100428.73
2019-04-03T10:25:45.977Z,100428.44
2019-04-03T10:28:17.984Z,100429.83
2019-04-03T10:30:52.137Z,100425.13
2019-04-03T10:33:23.394Z,100422.36
2019-04-03T10:35:55.048Z,100427.90
2019-04-03T10:38:26.728Z,100415.17
2019-04-03T10:40:58.654Z,100413.78
2019-04-03T10:43:30.507Z,100413.78
2019-04-03T10:46:02.446Z,100401.89
2019-04-03T10:48:34.929Z,100408.55
2019-04-03T10:51:09.122Z,100401.09
2019-04-03T10:53:40.896Z,100394.70
2019-04-03T10:56:13.360Z,100397.73
2019-04-03T10:58:45.250Z,100392.77
2019-04-03T11:01:17.641Z,100383.08
2019-04-03T11:03:49.595Z,100387.77
2019-04-03T11:06:21.524Z,100379.48
2019-04-03T11:08:53.613Z,100379.48
2019-04-03T11:11:27.150Z,100378.65
2019-04-03T11:14:02.158Z,100378.65
2019-04-03T11:16:33.155Z,100380.33
2019-04-03T11:19:06.985Z,100371.12
2019-04-03T11:21:39.090Z,100374.14
2019-04-03T11:24:11.180Z,100374.12
2019-04-03T11:26:43.444Z,100367.48
2019-04-03T11:29:15.527Z,100373.19
2019-04-03T11:31:47.498Z,100376.37
2019-04-03T11:34:19.414Z,100364.50
2019-04-03T11:36:51.118Z,100365.39
2019-04-03T11:39:23.192Z,100356.04
2019-04-03T11:41:56.192Z,100353.02
2019-04-03T11:44:28.340Z,100359.15
2019-04-03T11:47:00.650Z,100362.23
2019-04-03T11:49:32.661Z,100355.30
2019-04-03T11:52:10.842Z,100350.91
2019-04-03T11:54:42.017Z,100349.25
2019-04-03T11:57:14.021Z,100346.19
2019-04-03T11:59:49.054Z,100345.56
2019-04-03T12:02:22.253Z,100347.25
2019-04-03T12:04:54.465Z,100341.48
2019-04-03T12:07:27.296Z,100331.80
2019-04-03T12:09:59.499Z,100339.01
2019-04-03T12:12:32.915Z,100336.80
2019-04-03T12:15:11.949Z,100329.31
2019-04-03T12:17:45.585Z,100326.83
2019-04-03T12:20:17.564Z,100321.86
2019-04-03T12:22:49.209Z,100319.91
2019-04-03T12:25:21.013Z,100312.89
2019-04-03T12:27:52.716Z,100306.49
2019-04-03T12:30:26.424Z,100308.84
2019-04-03T12:32:58.076Z,100305.37
2019-04-03T12:35:29.835Z,100311.41
2019-04-03T12:38:01.964Z,100313.06
2019-04-03T12:40:33.760Z,100304.31
2019-04-03T12:43:05.789Z,100302.98
2019-04-03T12:45:37.890Z,100306.62
2019-04-03T12:48:10.085Z,100293.95
2019-04-03T12:50:42.538Z,100296.73
2019-04-03T12:53:16.893Z,100298.72
2019-04-03T12:55:48.226Z,100299.00
2019-04-03T12:58:19.963Z,100288.51
2019-04-03T13:00:51.709Z,100284.38
2019-04-03T13:03:25.689Z,100283.83
2019-04-03T13:05:57.404Z,100286.61
2019-04-03T13:08:29.624Z,100284.95
2019-04-03T13:11:01.680Z,100284.95
2019-04-03T13:13:33.803Z,100274.87
2019-04-03T13:16:08.872Z,100278.83
2019-04-03T13:18:39.866Z,100277.73
2019-04-03T13:21:11.987Z,100276.08
2019-04-03T13:23:46.781Z,100273.61
2019-04-03T13:26:19.146Z,100271.66
2019-04-03T13:28:51.225Z,100271.11
2019-04-03T13:31:23.250Z,100275.81
2019-04-03T13:33:55.564Z,100269.45
2019-04-03T13:36:27.705Z,100267.16
2019-04-03T13:39:01.572Z,100272.47
2019-04-03T13:41:34.891Z,100266.95
2019-04-03T13:44:06.990Z,100267.51
2019-04-03T13:46:39.854Z,100266.94
2019-04-03T13:49:17.131Z,100259.75
2019-04-03T13:51:47.587Z,100251.94
2019-04-03T13:54:19.466Z,100257.48
2019-04-03T13:56:53.306Z,100261.63
2019-04-03T13:59:26.389Z,100256.96
2019-04-03T14:01:59.537Z,100257.25
2019-04-03T14:04:32.406Z,100249.78
2019-04-03T14:07:07.339Z,100258.91
2019-04-03T14:09:38.310Z,100246.48
2019-04-03T14:12:10.174Z,100248.37
2019-04-03T14:14:42.185Z,100254.37
2019-04-03T14:17:14.431Z,100252.41
2019-04-03T14:19:50.898Z,100237.69
2019-04-03T14:22:19.737Z,100234.50
2019-04-03T14:24:52.668Z,100239.26
2019-04-03T14:27:29.877Z,100230.73
2019-04-03T14:29:59.359Z,100235.44
2019-04-03T14:32:32.993Z,100231.86
2019-04-03T14:35:31.747Z,100227.75
2019-04-03T14:37:38.942Z,100217.81
2019-04-03T14:40:13.055Z,100223.05
2019-04-03T14:42:45.779Z,100217.80
2019-04-03T14:45:25.330Z,100220.88
2019-04-03T14:48:02.142Z,100216.72
2019-04-03T14:50:36.480Z,100218.12
2019-04-03T14:53:07.414Z,100210.09
2019-04-03T14:55:47.303Z,100214.25
2019-04-03T14:58:13.000Z,100204.56
2019-04-03T15:00:47.463Z,100204.31
2019-04-03T15:03:18.480Z,100202.94
2019-04-03T15:05:50.363Z,100205.16
2019-04-03T15:08:23.550Z,100191.89
2019-04-03T15:10:55.989Z,100201.58
2019-04-03T15:13:28.673Z,100197.95
2019-04-03T15:16:01.197Z,100193.82
2019-04-03T15:18:33.471Z,100191.06
2019-04-03T15:21:05.542Z,100191.06
2019-04-03T15:23:40.406Z,100193.55
2019-04-03T15:26:10.543Z,100196.87
2019-04-03T15:28:42.184Z,100192.44
2019-04-03T15:31:14.939Z,100194.92
2019-04-03T15:33:47.000Z,100197.41
2019-04-03T15:36:18.813Z,100192.71
2019-04-03T15:38:50.880Z,100191.05
2019-04-03T15:41:22.914Z,100189.13
2019-04-03T15:43:54.678Z,100188.84
2019-04-03T15:46:27.141Z,100196.31
2019-04-03T15:48:59.806Z,100191.88
2019-04-03T15:51:32.103Z,100189.41
2019-04-03T15:54:04.515Z,100192.98
2019-04-03T15:56:36.737Z,100187.45
2019-04-03T15:59:10.907Z,100186.36
2019-04-03T16:01:42.360Z,100182.21
2019-04-03T16:04:14.251Z,100186.36
2019-04-03T16:06:46.151Z,100189.13
2019-04-03T16:09:19.567Z,100180.25
2019-04-03T16:11:52.020Z,100184.15
2019-04-03T16:14:24.581Z,100183.57
2019-04-03T16:16:56.383Z,100185.25
2019-04-03T16:19:29.769Z,100186.63
2019-04-03T16:22:01.450Z,100186.89
2019-04-03T16:24:33.869Z,100185.25
2019-04-03T16:27:07.351Z,100183.02
2019-04-03T16:29:40.026Z,100186.34
2019-04-03T16:32:12.810Z,100187.72
2019-04-03T16:34:45.199Z,100191.06
2019-04-03T16:37:20.470Z,100189.68
2019-04-03T16:39:50.505Z,100193.83
2019-04-03T16:42:22.726Z,100192.45
2019-04-03T16:44:54.597Z,100190.77
2019-04-03T16:47:27.687Z,100190.23
2019-04-03T16:50:00.436Z,100193.54
2019-04-03T16:52:32.486Z,100191.89
2019-04-03T16:55:06.646Z,100196.59
2019-04-03T16:57:39.375Z,100195.75
2019-04-03T17:00:11.412Z,100194.37
2019-04-03T17:02:43.770Z,100199.36
2019-04-03T17:05:15.456Z,100191.89
2019-04-03T17:07:47.375Z,100201.58
2019-04-03T17:10:19.300Z,100191.89
2019-04-03T17:12:50.931Z,100194.08
2019-04-03T17:15:22.441Z,100192.70
2019-04-03T17:17:54.756Z,100199.91
2019-04-03T17:20:26.664Z,100190.77
2019-04-03T17:22:58.713Z,100191.31
2019-04-03T17:25:43.947Z,100193.54
2019-04-03T17:28:07.587Z,100194.66
2019-04-03T17:30:37.336Z,100200.19
2019-04-03T17:33:09.441Z,100196.84
2019-04-03T17:35:41.568Z,100195.75
2019-04-03T17:38:13.456Z,100190.52
2019-04-03T17:40:45.370Z,100190.22
2019-04-03T17:43:28.762Z,100192.98
2019-04-03T17:46:00.736Z,100188.58
2019-04-03T17:48:32.595Z,100191.34
2019-04-03T17:51:04.633Z,100192.43
2019-04-03T17:53:37.166Z,100196.87
2019-04-03T17:56:08.997Z,100191.34
2019-04-03T17:58:41.576Z,100192.43
2019-04-03T18:01:14.754Z,100192.43
2019-04-03T18:03:47.848Z,100197.16
2019-04-03T18:06:19.713Z,100199.92
2019-04-03T18:08:52.021Z,100195.20
2019-04-03T18:11:23.942Z,100196.31
2019-04-03T18:13:56.569Z,100194.94
2019-04-03T18:16:29.754Z,100189.11
2019-04-03T18:19:04.660Z,100195.48
2019-04-03T18:21:35.218Z,100194.94
2019-04-03T18:24:07.165Z,100194.64
2019-04-03T18:26:39.419Z,100192.45
2019-04-03T18:29:11.141Z,100195.77
2019-04-03T18:31:44.649Z,100194.64
2019-04-03T18:34:19.460Z,100192.45
2019-04-03T18:36:50.023Z,100193.55
2019-04-03T18:39:24.758Z,100197.96
2019-04-03T18:41:56.371Z,100197.96
2019-04-03T18:44:30.177Z,100200.47
2019-04-03T18:47:01.751Z,100197.96
2019-04-03T18:49:33.755Z,100193.81
2019-04-03T18:52:07.587Z,100190.50
2019-04-03T18:54:38.881Z,100192.44
2019-04-03T18:57:10.794Z,100195.75
2019-04-03T18:59:42.685Z,100192.44
2019-04-03T19:02:14.411Z,100190.52
2019-04-03T19:04:46.569Z,100193.25
2019-04-03T19:07:39.906Z,100193.25
2019-04-03T19:10:12.327Z,100198.25
2019-04-03T19:12:44.218Z,100194.39
2019-04-03T19:15:17.444Z,100191.88
2019-04-03T19:17:59.514Z,100196.87
2019-04-03T19:20:23.158Z,100200.73
2019-04-03T19:23:02.672Z,100199.90
2019-04-03T19:25:30.170Z,100196.84
2019-04-03T19:28:04.029Z,100198.52
2019-04-03T19:30:38.026Z,100204.05
2019-04-03T19:33:09.715Z,100195.48
2019-04-03T19:35:43.131Z,100199.89
2019-04-03T19:38:15.431Z,100202.66
2019-04-03T19:40:47.106Z,100209.30
2019-04-03T19:43:20.306Z,100213.45
2019-04-03T19:45:53.378Z,100217.32
2019-04-03T19:48:29.231Z,100217.34
2019-04-03T19:51:03.531Z,100216.22
2019-04-03T19:53:35.949Z,100214.28
2019-04-03T19:56:07.864Z,100215.39
2019-04-03T19:58:39.804Z,100223.11
2019-04-03T20:01:11.964Z,100224.45
2019-04-03T20:03:44.894Z,100220.05
2019-04-03T20:06:18.538Z,100220.84
2019-04-03T20:08:51.067Z,100222.78
2019-04-03T20:11:22.761Z,100224.14
2019-04-03T20:14:11.454Z,100226.07
2019-04-03T20:16:38.057Z,100227.19
2019-04-03T20:19:15.635Z,100231.86
2019-04-03T20:21:47.392Z,100232.67
2019-04-03T20:24:19.230Z,100229.89
2019-04-03T20:26:51.218Z,100230.45
2019-04-03T20:29:47.753Z,100231.26
2019-04-03T20:35:50.524Z,100228.72
2019-04-03T20:38:32.409Z,100222.59
2019-04-03T20:41:09.117Z,100227.24
2019-04-03T20:43:43.231Z,100232.77
2019-04-03T20:46:14.813Z,100226.41
2019-04-03T20:48:52.047Z,100232.70
2019-04-03T20:51:28.929Z,100229.11
2019-04-03T20:54:06.600Z,100229.63
2019-04-03T20:57:02.595Z,100231.53
2019-04-03T20:59:30.174Z,100235.66
2019-04-03T21:02:08.092Z,100237.03
2019-04-03T21:04:37.501Z,100238.66
2019-04-03T21:07:11.830Z,100233.70
2019-04-03T21:09:46.055Z,100233.12
2019-04-03T21:12:17.657Z,100235.06
2019-04-03T21:14:49.478Z,100234.45
2019-04-03T21:17:23.902Z,100235.27
2019-04-03T21:19:55.268Z,100237.45
2019-04-03T21:22:29.570Z,100234.40
2019-04-03T21:25:00.280Z,100234.67
2019-04-03T21:27:34.879Z,100238.20
2019-04-03T21:30:09.205Z,100234.88
2019-04-03T21:32:41.398Z,100229.63
2019-04-03T21:35:13.406Z,100237.64
2019-04-03T21:37:46.822Z,100227.42
2019-04-03T21:40:18.909Z,100229.37
2019-04-03T21:42:51.041Z,100233.20
2019-04-03T21:45:27.796Z,100232.94
2019-04-03T21:48:06.817Z,100234.61
2019-04-03T21:50:38.612Z,100234.88
2019-04-03T21:53:12.276Z,100237.10
2019-04-03T21:55:44.238Z,100234.88
2019-04-03T21:58:16.517Z,100236.53
2019-04-03T22:01:02.061Z,100238.21
2019-04-03T22:03:37.102Z,100236.27
2019-04-03T22:06:10.805Z,100235.69
2019-04-03T22:08:53.320Z,100231.55
2019-04-03T22:11:30.705Z,100232.39
2019-04-03T22:14:02.624Z,100229.28
2019-04-03T22:16:37.707Z,100225.41
2019-04-03T22:19:10.518Z,100227.57
2019-04-03T22:21:42.330Z,100231.14
2019-04-03T22:24:14.888Z,100230.03
2019-04-03T22:26:46.677Z,100227.78
2019-04-03T22:29:20.396Z,100228.89
2019-04-03T22:31:54.615Z,100231.88
2019-04-03T22:34:27.944Z,100229.66
2019-04-03T22:37:00.072Z,100232.66
2019-04-03T22:39:31.808Z,100236.52
2019-04-03T22:42:03.597Z,100232.09
2019-04-03T22:44:35.401Z,100232.39
2019-04-03T22:47:08.294Z,100230.14
2019-04-03T22:49:41.739Z,100230.94
2019-04-03T22:52:13.674Z,100233.13
2019-04-03T22:54:46.278Z,100232.55
2019-04-03T22:57:19.804Z,100229.80
2019-04-03T22:59:54.433Z,100231.75
2019-04-03T23:02:25.690Z,100233.70
2019-04-03T23:04:58.050Z,100231.18
2019-04-03T23:07:29.742Z,100231.98
2019-04-03T23:10:01.555Z,100229.16
2019-04-03T23:12:33.995Z,100231.91
2019-04-03T23:15:09.379Z,100238.20
2019-04-03T23:17:41.128Z,100233.48
2019-04-03T23:20:12.897Z,100236.78
2019-04-03T23:22:47.372Z,100235.13
2019-04-03T23:25:19.148Z,100228.51
2019-04-03T23:27:50.931Z,100233.22
2019-04-03T23:30:22.678Z,100232.64
2019-04-03T23:32:54.436Z,100235.09
2019-04-03T23:35:26.433Z,100236.73
2019-04-03T23:37:58.257Z,100235.94
2019-04-03T23:40:30.145Z,100237.55
2019-04-03T23:43:02.151Z,100229.28
2019-04-03T23:45:34.175Z,100229.05
2019-04-03T23:48:06.495Z,100224.56
2019-04-03T23:50:38.278Z,100224.56
2019-04-03T23:53:11.595Z,100223.37
2019-04-03T23:55:43.372Z,100219.55
2019-04-03T23:58:15.086Z,100230.27
